Time,TemperatureF,DewpointF,PressureIn,WindDirection,WindDirectionDegrees,WindSpeedMPH,WindSpeedGustMPH,Humidity,HourlyPrecipIn,Conditions,Clouds,dailyrainin,SoftwareType,DateUTC
2013-05-31 00:02:00,63.0,62.0,29.82,SSE,157,2.0,5.0,96,0.00,,,0.69,,2013-05-31 05:02:00,
2013-05-31 00:12:00,63.0,62.0,29.82,SSE,157,2.0,5.0,96,0.00,,,0.69,,2013-05-31 05:12:00,
2013-05-31 00:22:00,63.0,62.0,29.82,South,180,0.0,7.0,96,0.00,,,0.69,,2013-05-31 05:22:00,
2013-05-31 00:32:00,63.0,62.0,29.81,SE,140,1.0,5.0,96,0.00,,,0.69,,2013-05-31 05:32:00,
2013-05-31 00:42:00,63.0,62.0,29.81,SE,140,1.0,5.0,96,0.00,,,0.69,,2013-05-31 05:42:00,
2013-05-31 00:52:00,63.0,62.0,29.80,South,175,2.0,7.0,96,0.01,,,0.70,,2013-05-31 05:52:00,
2013-05-31 01:02:00,64.0,63.0,29.80,SSE,153,3.0,7.0,96,0.01,,,0.70,,2013-05-31 06:02:00,
2013-05-31 01:12:00,64.0,63.0,29.80,SSE,153,3.0,7.0,96,0.01,,,0.70,,2013-05-31 06:12:00,
2013-05-31 01:21:00,64.0,63.0,29.80,SSW,206,2.0,8.0,96,0.01,,,0.70,,2013-05-31 06:21:00,
2013-05-31 01:32:00,64.0,63.0,29.81,SE,146,1.0,7.0,95,0.06,,,0.75,,2013-05-31 06:32:00,
2013-05-31 01:41:00,64.0,63.0,29.81,SE,146,1.0,7.0,95,0.06,,,0.75,,2013-05-31 06:41:00,
2013-05-31 01:51:00,64.0,63.0,29.82,South,182,2.0,6.0,96,0.11,,,0.81,,2013-05-31 06:51:00,
2013-05-31 02:02:00,64.0,63.0,29.79,South,175,2.0,8.0,96,0.15,,,0.85,,2013-05-31 07:02:00,
2013-05-31 02:11:00,64.0,63.0,29.79,South,175,2.0,8.0,96,0.15,,,0.85,,2013-05-31 07:11:00,
2013-05-31 02:21:00,64.0,63.0,29.78,South,188,3.0,9.0,96,0.17,,,0.87,,2013-05-31 07:21:00,
2013-05-31 02:32:00,64.0,63.0,29.78,South,187,3.0,8.0,95,0.12,,,0.87,,2013-05-31 07:32:00,
2013-05-31 02:41:00,64.0,63.0,29.78,South,187,3.0,8.0,95,0.12,,,0.87,,2013-05-31 07:41:00,
2013-05-31 02:52:00,64.0,62.0,29.78,South,172,3.0,8.0,94,0.06,,,0.87,,2013-05-31 07:52:00,
2013-05-31 03:02:00,64.0,63.0,29.78,SSW,192,1.0,5.0,95,0.02,,,0.87,,2013-05-31 08:02:00,
2013-05-31 03:11:00,64.0,63.0,29.78,SSW,192,1.0,5.0,95,0.02,,,0.87,,2013-05-31 08:11:00,
2013-05-31 03:22:00,64.0,63.0,29.79,SSW,196,2.0,8.0,96,0.00,,,0.87,,2013-05-31 08:22:00,
2013-05-31 03:32:00,64.0,63.0,29.78,South,185,1.0,3.0,95,0.00,,,0.87,,2013-05-31 08:32:00,
2013-05-31 03:42:00,64.0,63.0,29.78,South,185,1.0,3.0,95,0.00,,,0.87,,2013-05-31 08:42:00,
2013-05-31 03:51:00,63.0,62.0,29.78,SSW,194,2.0,5.0,96,0.00,,,0.87,,2013-05-31 08:51:00,
2013-05-31 04:01:00,64.0,63.0,29.78,SSE,168,2.0,8.0,96,0.00,,,0.87,,2013-05-31 09:01:00,
2013-05-31 04:11:00,64.0,63.0,29.78,SSE,168,2.0,8.0,96,0.00,,,0.87,,2013-05-31 09:11:00,
2013-05-31 04:21:00,64.0,63.0,29.77,SSE,167,1.0,7.0,96,0.00,,,0.87,,2013-05-31 09:21:00,
2013-05-31 04:32:00,64.0,63.0,29.78,SSW,193,2.0,6.0,96,0.00,,,0.87,,2013-05-31 09:32:00,
2013-05-31 04:43:00,64.0,63.0,29.78,SSW,193,2.0,6.0,96,0.00,,,0.87,,2013-05-31 09:43:00,
2013-05-31 04:53:00,64.0,63.0,29.78,SSW,205,2.0,5.0,96,0.00,,,0.87,,2013-05-31 09:53:00,
2013-05-31 05:02:00,64.0,63.0,29.79,SSW,200,3.0,7.0,96,0.00,,,0.87,,2013-05-31 10:02:00,
2013-05-31 05:12:00,64.0,63.0,29.79,SSW,200,3.0,7.0,96,0.00,,,0.87,,2013-05-31 10:12:00,
2013-05-31 05:22:00,64.0,63.0,29.79,South,188,3.0,7.0,96,0.00,,,0.87,,2013-05-31 10:22:00,
2013-05-31 05:33:00,64.0,63.0,29.79,SSW,194,1.0,5.0,96,0.00,,,0.87,,2013-05-31 10:33:00,
2013-05-31 05:42:00,64.0,63.0,29.79,SSW,194,1.0,5.0,96,0.00,,,0.87,,2013-05-31 10:42:00,
2013-05-31 05:52:00,64.0,63.0,29.79,SSW,200,1.0,5.0,96,0.00,,,0.87,,2013-05-31 10:52:00,
2013-05-31 06:02:00,64.0,63.0,29.79,South,190,2.0,7.0,96,0.00,,,0.87,,2013-05-31 11:02:00,
2013-05-31 06:12:00,64.0,63.0,29.79,South,190,2.0,7.0,96,0.00,,,0.87,,2013-05-31 11:12:00,
2013-05-31 06:22:00,64.0,63.0,29.79,SW,215,4.0,7.0,96,0.00,,,0.87,,2013-05-31 11:22:00,
2013-05-31 06:32:00,64.0,63.0,29.80,SSE,165,1.0,7.0,95,0.00,,,0.87,,2013-05-31 11:32:00,
2013-05-31 06:42:00,64.0,63.0,29.80,SSE,165,1.0,7.0,95,0.00,,,0.87,,2013-05-31 11:42:00,
2013-05-31 06:52:00,64.0,63.0,29.80,South,175,1.0,4.0,96,0.00,,,0.87,,2013-05-31 11:52:00,
2013-05-31 07:01:00,64.0,63.0,29.80,South,174,1.0,6.0,95,0.00,,,0.87,,2013-05-31 12:01:00,
2013-05-31 07:11:00,64.0,63.0,29.80,South,174,1.0,6.0,95,0.00,,,0.87,,2013-05-31 12:11:00,
2013-05-31 07:21:00,64.0,62.0,29.81,SSE,159,5.0,10.0,94,0.00,,,0.87,,2013-05-31 12:21:00,
2013-05-31 07:31:00,65.0,63.0,29.81,SE,132,4.0,14.0,93,0.00,,,0.87,,2013-05-31 12:31:00,
2013-05-31 07:41:00,65.0,63.0,29.81,SE,132,4.0,14.0,93,0.00,,,0.87,,2013-05-31 12:41:00,
2013-05-31 07:52:00,65.0,63.0,29.81,SSW,202,4.0,10.0,92,0.00,,,0.87,,2013-05-31 12:52:00,
2013-05-31 08:01:00,65.0,63.0,29.82,SW,221,5.0,14.0,92,0.00,,,0.87,,2013-05-31 13:01:00,
2013-05-31 08:11:00,65.0,63.0,29.82,SW,221,5.0,14.0,92,0.00,,,0.87,,2013-05-31 13:11:00,
2013-05-31 08:21:00,65.0,62.0,29.82,South,191,7.0,13.0,91,0.00,,,0.87,,2013-05-31 13:21:00,
2013-05-31 08:32:00,66.0,63.0,29.83,South,171,2.0,10.0,91,0.00,,,0.87,,2013-05-31 13:32:00,
2013-05-31 08:42:00,66.0,63.0,29.83,South,171,2.0,10.0,91,0.00,,,0.87,,2013-05-31 13:42:00,
2013-05-31 08:52:00,67.0,64.0,29.81,SE,142,2.0,11.0,90,0.00,,,0.87,,2013-05-31 13:52:00,
2013-05-31 09:02:00,67.0,64.0,29.81,SSW,192,3.0,10.0,89,0.00,,,0.87,,2013-05-31 14:02:00,
2013-05-31 09:11:00,67.0,64.0,29.81,SSW,192,3.0,10.0,89,0.00,,,0.87,,2013-05-31 14:11:00,
2013-05-31 09:21:00,68.0,64.0,29.80,SW,216,5.0,13.0,87,0.00,,,0.87,,2013-05-31 14:21:00,
2013-05-31 09:32:00,70.0,65.0,29.81,SSW,209,6.0,17.0,85,0.00,,,0.87,,2013-05-31 14:32:00,
2013-05-31 09:42:00,70.0,65.0,29.81,SSW,209,6.0,17.0,85,0.00,,,0.87,,2013-05-31 14:42:00,
2013-05-31 09:52:00,70.0,65.0,29.80,SW,226,6.0,18.0,83,0.00,,,0.87,,2013-05-31 14:52:00,
2013-05-31 10:01:00,71.0,66.0,29.80,SSW,195,4.0,8.0,83,0.00,,,0.87,,2013-05-31 15:01:00,
2013-05-31 10:11:00,71.0,66.0,29.80,SSW,195,4.0,8.0,83,0.00,,,0.87,,2013-05-31 15:11:00,
2013-05-31 10:21:00,72.0,66.0,29.81,South,182,6.0,14.0,82,0.00,,,0.87,,2013-05-31 15:21:00,
2013-05-31 10:33:00,72.0,66.0,29.82,West,259,2.0,12.0,82,0.00,,,0.87,,2013-05-31 15:33:00,
2013-05-31 10:43:00,72.0,66.0,29.82,West,259,2.0,12.0,82,0.00,,,0.87,,2013-05-31 15:43:00,
2013-05-31 10:53:00,72.0,66.0,29.82,West,259,2.0,12.0,82,0.00,,,0.87,,2013-05-31 15:53:00,
2013-05-31 11:03:00,74.0,66.0,29.82,SW,230,5.0,15.0,77,0.00,,,0.87,,2013-05-31 16:03:00,
2013-05-31 11:12:00,74.0,66.0,29.82,SW,230,5.0,15.0,77,0.00,,,0.87,,2013-05-31 16:12:00,
2013-05-31 11:22:00,74.0,66.0,29.82,ESE,114,4.0,14.0,75,0.00,,,0.87,,2013-05-31 16:22:00,
2013-05-31 11:33:00,73.0,65.0,29.82,SSE,151,2.0,11.0,77,0.00,,,0.87,,2013-05-31 16:33:00,
2013-05-31 11:42:00,73.0,65.0,29.82,SSE,151,2.0,11.0,77,0.00,,,0.87,,2013-05-31 16:42:00,
2013-05-31 11:52:00,73.0,66.0,29.82,SSW,213,3.0,12.0,79,0.00,,,0.87,,2013-05-31 16:52:00,
2013-05-31 12:02:00,73.0,66.0,29.83,SW,220,3.0,12.0,78,0.00,,,0.87,,2013-05-31 17:02:00,
2013-05-31 12:12:00,73.0,66.0,29.83,SW,220,3.0,12.0,78,0.00,,,0.87,,2013-05-31 17:12:00,
2013-05-31 12:22:00,74.0,67.0,29.82,East,95,4.0,12.0,78,0.00,,,0.87,,2013-05-31 17:22:00,
2013-05-31 12:32:00,74.0,67.0,29.82,SSE,152,4.0,10.0,78,0.00,,,0.87,,2013-05-31 17:32:00,
2013-05-31 12:42:00,74.0,67.0,29.82,SSE,152,4.0,10.0,78,0.00,,,0.87,,2013-05-31 17:42:00,
2013-05-31 12:52:00,74.0,66.0,29.81,SE,144,4.0,10.0,77,0.00,,,0.87,,2013-05-31 17:52:00,
2013-05-31 13:02:00,73.0,65.0,29.80,SW,215,2.0,11.0,75,0.00,,,0.87,,2013-05-31 18:02:00,
2013-05-31 13:11:00,73.0,65.0,29.80,SW,215,2.0,11.0,75,0.00,,,0.87,,2013-05-31 18:11:00,
2013-05-31 13:22:00,73.0,64.0,29.81,WSW,242,5.0,12.0,74,0.00,,,0.87,,2013-05-31 18:22:00,
2013-05-31 13:32:00,72.0,64.0,29.80,SSE,153,1.0,6.0,77,0.00,,,0.87,,2013-05-31 18:32:00,
2013-05-31 13:42:00,72.0,64.0,29.80,SSE,153,1.0,6.0,77,0.00,,,0.87,,2013-05-31 18:42:00,
2013-05-31 13:52:00,72.0,64.0,29.81,SW,215,2.0,7.0,76,0.00,,,0.87,,2013-05-31 18:52:00,
2013-05-31 14:02:00,72.0,65.0,29.81,SE,145,2.0,8.0,78,0.00,,,0.87,,2013-05-31 19:02:00,
2013-05-31 14:11:00,72.0,65.0,29.81,SE,145,2.0,8.0,78,0.00,,,0.87,,2013-05-31 19:11:00,
2013-05-31 14:22:00,72.0,65.0,29.80,WSW,243,2.0,7.0,78,0.00,,,0.87,,2013-05-31 19:22:00,
2013-05-31 14:32:00,71.0,65.0,29.80,SSW,209,2.0,7.0,80,0.00,,,0.87,,2013-05-31 19:32:00,
2013-05-31 14:42:00,71.0,65.0,29.80,SSW,209,2.0,7.0,80,0.00,,,0.87,,2013-05-31 19:42:00,
2013-05-31 14:52:00,71.0,65.0,29.79,SSW,205,2.0,7.0,80,0.00,,,0.87,,2013-05-31 19:52:00,
2013-05-31 15:01:00,71.0,65.0,29.78,WSW,245,1.0,7.0,80,0.00,,,0.87,,2013-05-31 20:01:00,
2013-05-31 15:11:00,71.0,65.0,29.78,WSW,245,1.0,7.0,80,0.00,,,0.87,,2013-05-31 20:11:00,
2013-05-31 15:22:00,71.0,65.0,29.78,South,179,2.0,6.0,81,0.00,,,0.87,,2013-05-31 20:22:00,
2013-05-31 15:32:00,71.0,66.0,29.78,South,182,1.0,4.0,83,0.00,,,0.87,,2013-05-31 20:32:00,
2013-05-31 15:42:00,71.0,66.0,29.78,South,182,1.0,4.0,83,0.00,,,0.87,,2013-05-31 20:42:00,
2013-05-31 15:52:00,72.0,67.0,29.76,South,184,2.0,5.0,83,0.00,,,0.87,,2013-05-31 20:52:00,
2013-05-31 16:01:00,72.0,66.0,29.77,South,185,2.0,6.0,82,0.00,,,0.87,,2013-05-31 21:01:00,
2013-05-31 16:11:00,72.0,66.0,29.77,South,185,2.0,6.0,82,0.00,,,0.87,,2013-05-31 21:11:00,
2013-05-31 16:22:00,72.0,67.0,29.76,SSE,157,3.0,10.0,83,0.00,,,0.87,,2013-05-31 21:22:00,
2013-05-31 16:32:00,70.0,66.0,29.73,SSE,165,4.0,9.0,87,0.02,,,0.85,,2013-05-31 21:32:00,
2013-05-31 16:42:00,70.0,66.0,29.73,SSE,165,4.0,9.0,87,0.02,,,0.85,,2013-05-31 21:42:00,
2013-05-31 16:53:00,69.0,66.0,29.73,West,277,0.0,4.0,90,0.04,,,0.87,,2013-05-31 21:53:00,
2013-05-31 17:02:00,69.0,66.0,29.73,SW,217,1.0,8.0,91,0.04,,,0.87,,2013-05-31 22:02:00,
2013-05-31 17:12:00,69.0,66.0,29.73,SW,217,1.0,8.0,91,0.04,,,0.87,,2013-05-31 22:12:00,
2013-05-31 17:22:00,69.0,67.0,29.72,SSE,160,2.0,7.0,93,0.04,,,0.87,,2013-05-31 22:22:00,
2013-05-31 17:33:00,69.0,67.0,29.72,SSW,202,1.0,5.0,94,0.02,,,0.71,,2013-05-31 22:33:00,
2013-05-31 17:42:00,69.0,67.0,29.72,South,184,2.0,7.0,94,0.00,,,0.71,,2013-05-31 22:42:00,
2013-05-31 17:52:00,69.0,67.0,29.72,South,184,2.0,7.0,94,0.00,,,0.71,,2013-05-31 22:52:00,
2013-05-31 18:02:00,70.0,67.0,29.72,SSW,209,6.0,15.0,89,0.00,,,0.71,,2013-05-31 23:02:00,
2013-05-31 18:12:00,70.0,67.0,29.72,SSW,209,6.0,15.0,89,0.00,,,0.71,,2013-05-31 23:12:00,
2013-05-31 18:21:00,70.0,65.0,29.72,SSE,162,6.0,12.0,84,0.00,,,0.71,,2013-05-31 23:21:00,
2013-05-31 18:32:00,69.0,64.0,29.71,SSW,194,2.0,14.0,85,0.00,,,0.71,,2013-05-31 23:32:00,
2013-05-31 18:42:00,69.0,64.0,29.71,SSW,194,2.0,14.0,85,0.00,,,0.71,,2013-05-31 23:42:00,
2013-05-31 18:52:00,69.0,65.0,29.71,SSW,207,2.0,5.0,86,0.00,,,0.71,,2013-05-31 23:52:00,
2013-05-31 19:01:00,71.0,67.0,29.71,SSW,203,1.0,7.0,87,0.00,,,0.71,,2013-06-01 00:01:00,
2013-05-31 19:11:00,71.0,67.0,29.71,SSW,203,1.0,7.0,87,0.00,,,0.71,,2013-06-01 00:11:00,
2013-05-31 19:22:00,71.0,67.0,29.70,SSW,198,2.0,6.0,87,0.00,,,0.71,,2013-06-01 00:22:00,
2013-05-31 19:32:00,71.0,67.0,29.71,SW,222,2.0,8.0,88,0.00,,,0.71,,2013-06-01 00:32:00,
2013-05-31 19:42:00,71.0,67.0,29.71,SW,222,2.0,8.0,88,0.00,,,0.71,,2013-06-01 00:42:00,
2013-05-31 19:52:00,71.0,68.0,29.71,South,184,0.0,5.0,89,0.00,,,0.71,,2013-06-01 00:52:00,
2013-05-31 20:01:00,70.0,67.0,29.70,South,169,1.0,6.0,91,0.00,,,0.71,,2013-06-01 01:01:00,
2013-05-31 20:11:00,70.0,67.0,29.70,South,169,1.0,6.0,91,0.00,,,0.71,,2013-06-01 01:11:00,
2013-05-31 20:22:00,70.0,67.0,29.71,South,191,0.0,6.0,91,0.00,,,0.71,,2013-06-01 01:22:00,
2013-05-31 20:32:00,70.0,68.0,29.71,South,187,2.0,5.0,92,0.00,,,0.71,,2013-06-01 01:32:00,
2013-05-31 20:42:00,70.0,68.0,29.72,SSE,159,0.0,5.0,92,0.00,,,0.71,,2013-06-01 01:42:00,
2013-05-31 20:52:00,70.0,68.0,29.72,SSE,159,0.0,5.0,92,0.00,,,0.71,,2013-06-01 01:52:00,
2013-05-31 21:01:00,70.0,68.0,29.72,South,186,1.0,5.0,92,0.00,,,0.71,,2013-06-01 02:01:00,
2013-05-31 21:11:00,70.0,68.0,29.72,South,186,1.0,5.0,92,0.00,,,0.71,,2013-06-01 02:11:00,
2013-05-31 21:21:00,70.0,68.0,29.72,South,189,0.0,4.0,93,0.00,,,0.71,,2013-06-01 02:21:00,
2013-05-31 21:32:00,71.0,69.0,29.73,South,181,2.0,5.0,94,0.00,,,0.61,,2013-06-01 02:32:00,
2013-05-31 21:42:00,72.0,70.0,29.72,SSW,194,5.0,11.0,93,0.00,,,0.61,,2013-06-01 02:42:00,
2013-05-31 21:51:00,72.0,70.0,29.72,SSW,194,5.0,11.0,93,0.00,,,0.61,,2013-06-01 02:51:00,
2013-05-31 22:01:00,73.0,70.0,29.72,SSW,205,4.0,14.0,91,0.00,,,0.61,,2013-06-01 03:01:00,
2013-05-31 22:11:00,73.0,70.0,29.72,SSW,205,4.0,14.0,91,0.00,,,0.61,,2013-06-01 03:11:00,
2013-05-31 22:21:00,73.0,70.0,29.72,ESE,114,3.0,12.0,91,0.01,,,0.62,,2013-06-01 03:21:00,
2013-05-31 22:33:00,72.0,69.0,29.68,South,177,4.0,10.0,91,0.01,,,0.25,,2013-06-01 03:33:00,
2013-05-31 22:43:00,72.0,69.0,29.66,SW,221,4.0,15.0,91,0.02,,,0.26,,2013-06-01 03:43:00,
2013-05-31 22:53:00,72.0,69.0,29.66,SW,221,4.0,15.0,91,0.02,,,0.26,,2013-06-01 03:53:00,
2013-05-31 23:03:00,72.0,70.0,29.67,WSW,238,4.0,17.0,93,0.03,,,0.27,,2013-06-01 04:03:00,
2013-05-31 23:12:00,72.0,70.0,29.67,WSW,238,4.0,17.0,93,0.03,,,0.27,,2013-06-01 04:12:00,
2013-05-31 23:23:00,71.0,69.0,29.65,SW,217,5.0,9.0,94,0.03,,,0.28,,2013-06-01 04:23:00,
2013-05-31 23:33:00,71.0,69.0,29.68,SE,144,1.0,11.0,92,0.03,,,0.26,,2013-06-01 04:33:00,
2013-05-31 23:42:00,70.0,68.0,29.67,South,180,2.0,6.0,92,0.02,,,0.26,,2013-06-01 04:42:00,
2013-05-31 23:53:00,70.0,68.0,29.67,South,180,2.0,6.0,92,0.02,,,0.26,,2013-06-01 04:53:00,